createdAt,value
2022-10-17T00:01:56.074Z,11.86
2022-10-17T00:04:22.665Z,11.72
2022-10-17T00:06:49.234Z,11.61
2022-10-17T00:09:15.714Z,11.49
2022-10-17T00:11:42.191Z,11.62
2022-10-17T00:14:08.729Z,11.63
2022-10-17T00:16:39.167Z,11.63
2022-10-17T00:19:06.507Z,11.63
2022-10-17T00:21:33.484Z,11.55
2022-10-17T00:24:00.765Z,11.39
2022-10-17T00:26:29.490Z,11.32
2022-10-17T00:28:56.113Z,11.49
2022-10-17T00:31:23.398Z,11.50
2022-10-17T00:33:50.386Z,11.42
2022-10-17T00:36:18.862Z,11.39
2022-10-17T00:38:46.621Z,11.48
2022-10-17T00:41:14.317Z,11.45
2022-10-17T00:43:53.137Z,11.37
2022-10-17T00:46:20.726Z,11.46
2022-10-17T00:48:49.757Z,11.42
2022-10-17T00:51:16.988Z,11.38
2022-10-17T00:53:43.507Z,11.21
2022-10-17T00:56:10.390Z,11.18
2022-10-17T00:58:36.866Z,11.04
2022-10-17T01:01:05.113Z,11.07
2022-10-17T01:03:31.905Z,11.11
2022-10-17T01:05:58.669Z,11.11
2022-10-17T01:08:25.393Z,11.08
2022-10-17T01:10:55.210Z,11.13
2022-10-17T01:13:27.992Z,11.07
2022-10-17T01:15:54.702Z,11.12
2022-10-17T01:18:24.855Z,11.06
2022-10-17T01:20:51.862Z,11.03
2022-10-17T01:23:38.341Z,11.06
2022-10-17T01:26:14.468Z,11.01
2022-10-17T01:28:59.578Z,11.01
2022-10-17T01:39:06.462Z,10.65
2022-10-17T01:41:46.209Z,10.56
2022-10-17T01:44:26.079Z,10.63
2022-10-17T01:46:58.495Z,10.67
2022-10-17T01:49:28.461Z,10.62
2022-10-17T01:52:04.009Z,10.67
2022-10-17T01:54:33.008Z,10.70
2022-10-17T01:57:01.693Z,10.75
2022-10-17T01:59:42.545Z,10.65
2022-10-17T02:02:09.934Z,10.59
2022-10-17T02:04:36.582Z,10.68
2022-10-17T02:07:11.695Z,10.59
2022-10-17T02:09:38.337Z,10.52
2022-10-17T02:12:15.169Z,10.51
2022-10-17T02:14:58.223Z,10.58
2022-10-17T02:17:24.870Z,10.64
2022-10-17T02:19:54.639Z,10.64
2022-10-17T02:22:27.790Z,10.53
2022-10-17T02:24:54.190Z,10.41
2022-10-17T02:27:26.435Z,10.35
2022-10-17T02:30:12.595Z,10.34
2022-10-17T02:32:45.441Z,10.41
2022-10-17T02:35:15.581Z,10.37
2022-10-17T02:37:43.705Z,10.10
2022-10-17T02:40:11.273Z,10.10
2022-10-17T02:42:39.185Z,10.05
2022-10-17T02:45:07.233Z,10.32
2022-10-17T02:48:08.938Z,10.36
2022-10-17T02:50:43.011Z,10.36
2022-10-17T02:53:12.467Z,10.41
2022-10-17T02:55:43.550Z,10.31
2022-10-17T02:58:23.684Z,10.25
2022-10-17T03:00:50.904Z,10.23
2022-10-17T03:03:21.609Z,10.14
2022-10-17T03:05:48.222Z,10.13
2022-10-17T03:08:14.764Z,9.97
2022-10-17T03:10:41.489Z,10.02
2022-10-17T03:13:08.462Z,9.90
2022-10-17T03:15:38.558Z,9.98
2022-10-17T03:18:05.163Z,10.03
2022-10-17T03:20:31.770Z,10.02
2022-10-17T03:22:58.242Z,9.80
2022-10-17T03:25:24.821Z,9.72
2022-10-17T03:27:51.725Z,9.83
2022-10-17T03:30:18.300Z,9.89
2022-10-17T03:32:44.850Z,9.64
2022-10-17T03:35:15.081Z,9.71
2022-10-17T03:37:44.706Z,9.62
2022-10-17T03:40:12.941Z,9.77
2022-10-17T03:42:39.438Z,9.78
2022-10-17T03:45:06.321Z,9.81
2022-10-17T03:47:33.072Z,9.76
2022-10-17T03:50:00.178Z,9.64
2022-10-17T03:52:29.350Z,9.40
2022-10-17T03:54:55.834Z,9.43
2022-10-17T03:57:22.336Z,9.59
2022-10-17T03:59:50.291Z,9.56
2022-10-17T04:02:19.149Z,9.50
2022-10-17T04:04:45.608Z,9.59
2022-10-17T04:07:12.082Z,9.61
2022-10-17T04:09:43.768Z,9.41
2022-10-17T04:12:17.859Z,9.45
2022-10-17T04:14:44.391Z,9.45
2022-10-17T04:17:10.865Z,9.40
2022-10-17T04:19:38.644Z,9.54
2022-10-17T04:22:05.194Z,9.56
2022-10-17T04:24:35.817Z,9.43
2022-10-17T04:27:05.537Z,9.41
2022-10-17T04:29:36.459Z,9.54
2022-10-17T04:32:12.090Z,9.45
2022-10-17T04:34:50.765Z,9.47
2022-10-17T04:37:20.189Z,9.51
2022-10-17T04:39:48.953Z,9.51
2022-10-17T04:42:15.413Z,9.41
2022-10-17T04:44:42.284Z,9.43
2022-10-17T04:47:09.037Z,9.51
2022-10-17T04:49:35.522Z,9.48
2022-10-17T04:52:09.995Z,9.52
2022-10-17T04:54:43.952Z,9.60
2022-10-17T04:57:12.924Z,9.53
2022-10-17T04:59:40.758Z,9.47
2022-10-17T05:02:20.017Z,9.59
2022-10-17T05:04:46.920Z,9.70
2022-10-17T05:07:15.661Z,9.59
2022-10-17T05:10:01.470Z,9.53
2022-10-17T05:12:29.260Z,9.65
2022-10-17T05:14:55.886Z,9.62
2022-10-17T05:17:25.011Z,9.59
2022-10-17T05:19:51.491Z,9.61
2022-10-17T05:22:19.227Z,9.71
2022-10-17T05:24:45.757Z,9.64
2022-10-17T05:27:13.330Z,9.61
2022-10-17T05:29:40.171Z,9.36
2022-10-17T05:32:17.176Z,9.41
2022-10-17T05:34:44.139Z,9.48
2022-10-17T05:37:11.053Z,9.74
2022-10-17T05:39:38.601Z,9.70
2022-10-17T05:42:05.167Z,9.87
2022-10-17T05:44:33.522Z,10.03
2022-10-17T05:47:00.425Z,10.17
2022-10-17T05:49:44.967Z,10.15
2022-10-17T05:52:14.058Z,10.28
2022-10-17T05:55:03.946Z,10.40
2022-10-17T05:57:31.414Z,10.28
2022-10-17T05:59:59.121Z,10.18
2022-10-17T06:02:25.624Z,10.04
2022-10-17T06:04:52.193Z,10.29
2022-10-17T06:07:20.789Z,10.37
2022-10-17T06:09:47.974Z,10.61
2022-10-17T06:12:14.895Z,10.71
2022-10-17T06:14:42.385Z,10.78
2022-10-17T06:17:13.380Z,10.89
2022-10-17T06:19:44.423Z,10.87
2022-10-17T06:22:14.186Z,10.94
2022-10-17T06:24:41.016Z,10.97
2022-10-17T06:27:11.048Z,11.18
2022-10-17T06:29:39.384Z,11.27
2022-10-17T06:32:08.634Z,11.43
2022-10-17T06:34:37.980Z,11.52
2022-10-17T06:37:04.643Z,11.56
2022-10-17T06:39:34.361Z,12.06
2022-10-17T06:42:05.790Z,11.84
2022-10-17T06:44:45.871Z,11.92
2022-10-17T06:47:32.745Z,12.07
2022-10-17T06:50:05.529Z,12.41
2022-10-17T06:52:50.239Z,12.66
2022-10-17T06:55:53.132Z,13.01
2022-10-17T06:58:46.993Z,13.46
2022-10-17T07:01:23.707Z,13.98
2022-10-17T07:03:54.608Z,14.28
2022-10-17T07:06:23.206Z,14.79
2022-10-17T07:08:50.456Z,15.10
2022-10-17T07:11:19.729Z,15.62
2022-10-17T07:13:49.085Z,16.22
2022-10-17T07:16:15.946Z,15.98
2022-10-17T07:18:44.667Z,16.43
2022-10-17T07:21:11.281Z,16.98
2022-10-17T07:23:41.419Z,17.12
2022-10-17T07:26:10.290Z,17.07
2022-10-17T07:28:39.482Z,17.45
2022-10-17T07:31:18.583Z,17.92
2022-10-17T07:36:17.544Z,17.80
2022-10-17T07:38:44.119Z,17.97
2022-10-17T07:41:11.612Z,18.36
2022-10-17T07:43:38.775Z,18.16
2022-10-17T07:46:08.511Z,18.44
2022-10-17T07:48:35.399Z,18.87
2022-10-17T07:51:02.643Z,18.59
2022-10-17T07:53:29.062Z,18.28
2022-10-17T07:55:55.521Z,18.21
2022-10-17T07:58:21.939Z,18.92
2022-10-17T08:00:49.199Z,19.01
2022-10-17T08:03:15.685Z,19.16
2022-10-17T08:05:42.176Z,18.42
2022-10-17T08:08:08.666Z,19.32
2022-10-17T08:10:35.095Z,20.18
2022-10-17T08:13:01.711Z,19.79
2022-10-17T08:15:31.712Z,19.17
2022-10-17T08:17:59.053Z,19.28
2022-10-17T08:20:25.527Z,19.13
2022-10-17T08:22:53.294Z,19.08
2022-10-17T08:25:19.727Z,19.95
2022-10-17T08:27:46.274Z,20.34
2022-10-17T08:30:13.083Z,19.72
2022-10-17T08:32:39.603Z,19.99
2022-10-17T08:35:06.278Z,20.55
2022-10-17T08:37:33.017Z,20.47
2022-10-17T08:39:59.706Z,20.35
2022-10-17T08:42:44.888Z,20.61
2022-10-17T08:45:32.506Z,19.99
2022-10-17T08:48:00.117Z,20.44
2022-10-17T08:50:45.365Z,20.38
2022-10-17T08:53:18.270Z,20.54
2022-10-17T08:55:46.471Z,20.07
2022-10-17T08:58:14.349Z,20.52
2022-10-17T09:00:43.623Z,21.31
2022-10-17T09:03:16.391Z,20.64
2022-10-17T09:05:52.457Z,20.81
2022-10-17T09:08:32.943Z,22.05
2022-10-17T09:11:20.774Z,23.04
2022-10-17T09:14:13.695Z,22.44
2022-10-17T09:16:42.872Z,21.94
2022-10-17T09:19:18.504Z,21.35
2022-10-17T09:21:48.607Z,22.20
2022-10-17T09:24:20.507Z,21.73
2022-10-17T09:26:47.032Z,21.76
2022-10-17T09:29:25.096Z,22.19
2022-10-17T09:32:11.754Z,21.47
2022-10-17T09:34:38.238Z,21.85
2022-10-17T09:37:11.025Z,22.62
2022-10-17T09:39:37.482Z,22.93
2022-10-17T09:42:03.994Z,22.53
2022-10-17T09:44:34.964Z,22.88
2022-10-17T09:47:04.200Z,22.91
2022-10-17T09:49:35.262Z,23.67
2022-10-17T09:52:03.927Z,23.05
2022-10-17T09:54:39.711Z,23.85
2022-10-17T09:57:07.558Z,23.38
2022-10-17T09:59:38.734Z,24.14
2022-10-17T10:02:14.557Z,23.73
2022-10-17T10:05:05.978Z,23.75
2022-10-17T10:07:34.670Z,23.71
2022-10-17T10:10:02.954Z,24.05
2022-10-17T10:12:31.952Z,23.83
2022-10-17T10:14:58.924Z,24.34
2022-10-17T10:17:36.785Z,23.92
2022-10-17T10:20:25.181Z,24.02
2022-10-17T10:23:10.460Z,23.46
2022-10-17T10:25:36.929Z,24.01
2022-10-17T10:28:09.877Z,23.51
2022-10-17T10:30:39.157Z,23.89
2022-10-17T10:33:06.660Z,24.00
2022-10-17T10:35:36.947Z,24.07
2022-10-17T10:38:08.526Z,24.24
2022-10-17T10:40:39.731Z,23.48
2022-10-17T10:43:06.616Z,23.85
2022-10-17T10:45:47.363Z,24.40
2022-10-17T10:48:17.821Z,24.62
2022-10-17T10:50:46.467Z,24.20
2022-10-17T10:53:12.854Z,24.10
2022-10-17T10:55:50.713Z,25.02
2022-10-17T10:58:20.211Z,24.93
2022-10-17T11:00:47.890Z,24.60
2022-10-17T11:03:24.281Z,25.26
2022-10-17T11:05:59.862Z,24.49
2022-10-17T11:08:47.625Z,24.63
2022-10-17T11:11:17.937Z,25.33
2022-10-17T11:13:53.380Z,24.86
2022-10-17T11:16:28.458Z,25.08
2022-10-17T11:18:58.073Z,25.69
2022-10-17T11:21:28.833Z,25.32
2022-10-17T11:24:12.515Z,25.48
2022-10-17T11:26:42.172Z,25.75
2022-10-17T11:29:11.970Z,25.94
2022-10-17T11:31:40.867Z,25.71
2022-10-17T11:34:10.389Z,24.97
2022-10-17T11:36:41.922Z,25.85
2022-10-17T11:39:13.976Z,25.82
2022-10-17T11:41:50.566Z,25.85
2022-10-17T11:44:37.203Z,26.55
2022-10-17T11:47:06.321Z,26.27
2022-10-17T11:49:40.236Z,26.63
2022-10-17T11:52:44.016Z,26.25
2022-10-17T11:55:23.663Z,26.00
2022-10-17T11:57:50.072Z,26.88
2022-10-17T12:00:22.543Z,25.77
2022-10-17T12:03:04.973Z,25.86
2022-10-17T12:05:40.898Z,25.65
2022-10-17T12:08:17.093Z,25.95
2022-10-17T12:11:02.082Z,26.71
2022-10-17T12:13:28.506Z,26.58
2022-10-17T12:15:55.519Z,26.17
2022-10-17T12:18:23.981Z,26.18
2022-10-17T12:21:00.460Z,27.74
2022-10-17T12:23:27.961Z,27.27
2022-10-17T12:25:58.414Z,26.49
2022-10-17T12:28:29.677Z,26.97
2022-10-17T12:31:00.975Z,26.23
2022-10-17T12:33:35.601Z,26.86
2022-10-17T12:36:17.207Z,26.25
2022-10-17T12:38:47.749Z,26.69
2022-10-17T12:41:16.165Z,25.77
2022-10-17T12:43:47.367Z,26.43
2022-10-17T12:46:34.033Z,26.89
2022-10-17T12:49:02.505Z,26.85
2022-10-17T12:51:37.940Z,26.34
2022-10-17T12:54:17.005Z,26.52
2022-10-17T12:56:45.574Z,26.15
2022-10-17T12:59:27.318Z,26.71
2022-10-17T13:01:57.407Z,26.80
2022-10-17T13:04:24.490Z,26.10
2022-10-17T13:06:58.676Z,26.17
2022-10-17T13:09:30.220Z,26.44
2022-10-17T13:11:58.585Z,26.69
2022-10-17T13:14:25.738Z,26.54
2022-10-17T13:16:54.046Z,26.04
2022-10-17T13:19:23.478Z,26.64
2022-10-17T13:22:00.967Z,25.99
2022-10-17T13:24:31.901Z,26.56
2022-10-17T13:26:59.177Z,25.69
2022-10-17T13:29:26.227Z,26.54
2022-10-17T13:31:54.448Z,26.36
2022-10-17T13:34:23.139Z,25.75
2022-10-17T13:36:54.302Z,26.19
2022-10-17T13:39:32.390Z,25.69
2022-10-17T13:42:29.516Z,25.65
2022-10-17T13:44:57.206Z,25.80
2022-10-17T13:47:32.685Z,25.77
2022-10-17T13:49:59.491Z,25.65
2022-10-17T13:52:27.982Z,25.92
2022-10-17T13:54:56.717Z,25.68
2022-10-17T13:57:28.122Z,25.25
2022-10-17T13:59:56.950Z,25.28
2022-10-17T14:02:25.099Z,24.82
2022-10-17T14:05:16.717Z,25.32
2022-10-17T14:08:10.480Z,25.46
2022-10-17T14:10:38.930Z,24.80
2022-10-17T14:13:08.092Z,24.37
2022-10-17T14:15:35.249Z,24.47
2022-10-17T14:18:07.962Z,24.89
2022-10-17T14:21:19.376Z,24.85
2022-10-17T14:23:41.706Z,24.52
2022-10-17T14:26:10.516Z,24.63
2022-10-17T14:28:37.565Z,24.55
2022-10-17T14:31:19.752Z,24.14
2022-10-17T14:33:50.613Z,23.93
2022-10-17T14:36:18.077Z,24.23
2022-10-17T14:38:46.103Z,23.91
2022-10-17T14:44:31.810Z,23.82
2022-10-17T14:47:38.110Z,23.50
2022-10-17T14:50:08.088Z,23.49
2022-10-17T14:52:35.174Z,23.46
2022-10-17T14:55:19.439Z,23.27
2022-10-17T14:57:46.219Z,23.03
2022-10-17T15:00:14.018Z,23.04
2022-10-17T15:02:40.541Z,22.72
2022-10-17T15:05:10.771Z,23.00
2022-10-17T15:07:39.641Z,23.10
2022-10-17T15:10:06.462Z,22.75
2022-10-17T15:12:33.049Z,22.69
2022-10-17T15:14:59.526Z,22.57
2022-10-17T15:17:30.501Z,22.25
2022-10-17T15:19:57.438Z,21.48
2022-10-17T15:22:24.199Z,21.09
2022-10-17T15:24:50.654Z,21.11
2022-10-17T15:27:18.746Z,21.07
2022-10-17T15:29:45.548Z,21.12
2022-10-17T15:32:12.015Z,21.10
2022-10-17T15:34:38.783Z,21.05
2022-10-17T15:37:06.245Z,20.86
2022-10-17T15:39:33.088Z,20.42
2022-10-17T15:41:59.970Z,20.16
2022-10-17T15:44:26.465Z,19.86
2022-10-17T15:46:53.811Z,19.41
2022-10-17T15:49:20.254Z,19.17
2022-10-17T15:51:49.335Z,19.36
2022-10-17T15:54:16.928Z,19.08
2022-10-17T15:56:46.276Z,19.07
2022-10-17T15:59:15.682Z,19.08
2022-10-17T16:01:42.477Z,18.99
2022-10-17T16:04:15.667Z,18.70
2022-10-17T16:06:42.601Z,18.73
2022-10-17T16:09:09.569Z,18.64
2022-10-17T16:11:37.965Z,18.53
2022-10-17T16:14:06.151Z,18.46
2022-10-17T16:16:32.933Z,18.46
2022-10-17T16:18:59.633Z,18.35
2022-10-17T16:21:27.994Z,18.41
2022-10-17T16:23:54.573Z,18.15
2022-10-17T16:26:21.222Z,18.07
2022-10-17T16:28:47.812Z,17.92
2022-10-17T16:31:25.069Z,17.99
2022-10-17T16:33:53.445Z,17.78
2022-10-17T16:36:20.346Z,17.51
2022-10-17T16:38:47.379Z,17.52
2022-10-17T16:41:18.914Z,17.73
2022-10-17T16:43:45.425Z,17.80
2022-10-17T16:46:11.907Z,17.63
2022-10-17T16:48:41.303Z,17.47
2022-10-17T16:51:07.966Z,17.33
2022-10-17T16:53:34.466Z,17.20
2022-10-17T16:56:04.593Z,17.28
2022-10-17T16:58:32.300Z,17.26
2022-10-17T17:01:08.046Z,17.18
2022-10-17T17:03:35.149Z,16.93
2022-10-17T17:06:01.574Z,16.84
2022-10-17T17:08:28.008Z,16.96
2022-10-17T17:10:55.630Z,16.93
2022-10-17T17:13:22.066Z,16.74
2022-10-17T17:15:53.558Z,16.76
2022-10-17T17:18:20.694Z,16.74
2022-10-17T17:20:47.664Z,16.75
2022-10-17T17:23:16.026Z,16.61
2022-10-17T17:25:42.622Z,16.57
2022-10-17T17:28:09.201Z,16.70
2022-10-17T17:30:35.746Z,16.72
2022-10-17T17:33:02.481Z,16.49
2022-10-17T17:35:28.932Z,16.57
2022-10-17T17:37:55.397Z,16.41
2022-10-17T17:40:21.884Z,16.24
2022-10-17T17:42:48.400Z,16.19
2022-10-17T17:45:14.925Z,16.15
2022-10-17T17:47:41.472Z,16.10
2022-10-17T17:50:08.151Z,16.06
2022-10-17T17:52:34.664Z,16.05
2022-10-17T17:55:01.090Z,16.10
2022-10-17T17:57:29.027Z,16.03
2022-10-17T17:59:55.441Z,15.97
2022-10-17T18:02:21.870Z,15.98
2022-10-17T18:04:48.910Z,15.92
2022-10-17T18:07:15.344Z,15.82
2022-10-17T18:09:41.801Z,15.90
2022-10-17T18:12:08.238Z,15.76
2022-10-17T18:14:34.715Z,15.73
2022-10-17T18:17:01.136Z,15.68
2022-10-17T18:19:28.247Z,15.60
2022-10-17T18:21:54.709Z,15.45
2022-10-17T18:24:21.192Z,15.38
2022-10-17T18:26:47.629Z,15.34
2022-10-17T18:29:14.119Z,15.46
2022-10-17T18:31:40.777Z,15.51
2022-10-17T18:34:07.209Z,15.34
2022-10-17T18:36:34.564Z,15.38
2022-10-17T18:39:01.504Z,15.44
2022-10-17T18:41:28.535Z,15.39
2022-10-17T18:43:55.944Z,15.24
2022-10-17T18:46:23.897Z,15.14
2022-10-17T18:48:50.706Z,15.10
2022-10-17T18:51:18.450Z,15.09
2022-10-17T18:53:46.045Z,15.11
2022-10-17T18:56:13.167Z,15.17
2022-10-17T18:58:40.099Z,15.08
2022-10-17T19:01:07.971Z,14.96
2022-10-17T19:03:34.460Z,14.70
2022-10-17T19:06:10.045Z,14.80
2022-10-17T19:08:37.179Z,14.65
2022-10-17T19:11:06.805Z,14.52
2022-10-17T19:13:33.620Z,14.60
2022-10-17T19:16:00.119Z,14.65
2022-10-17T19:18:26.597Z,14.64
2022-10-17T19:20:53.086Z,14.52
2022-10-17T19:23:19.523Z,14.53
2022-10-17T19:25:45.943Z,14.49
2022-10-17T19:28:12.354Z,14.55
2022-10-17T19:30:41.414Z,14.40
2022-10-17T19:33:07.814Z,14.29
2022-10-17T19:35:34.859Z,14.24
2022-10-17T19:38:01.341Z,14.17
2022-10-17T19:40:28.707Z,14.26
2022-10-17T19:42:55.114Z,14.33
2022-10-17T19:45:21.644Z,14.25
2022-10-17T19:47:48.057Z,14.22
2022-10-17T19:50:14.567Z,14.28
2022-10-17T19:52:40.979Z,14.21
2022-10-17T19:55:07.631Z,14.21
2022-10-17T19:57:36.349Z,14.23
2022-10-17T20:00:02.865Z,14.15
2022-10-17T20:02:37.775Z,14.38
2022-10-17T20:05:20.821Z,14.21
2022-10-17T20:07:49.103Z,14.15
2022-10-17T20:10:15.505Z,14.00
2022-10-17T20:12:41.927Z,14.04
2022-10-17T20:15:08.530Z,13.91
2022-10-17T20:20:08.834Z,13.86
2022-10-17T20:22:35.542Z,13.97
2022-10-17T20:25:01.999Z,13.82
2022-10-17T20:27:28.414Z,13.84
2022-10-17T20:29:54.923Z,13.77
2022-10-17T20:32:21.387Z,13.71
2022-10-17T20:34:47.805Z,13.78
2022-10-17T20:37:14.217Z,13.68
2022-10-17T20:39:42.387Z,13.62
2022-10-17T20:42:08.799Z,13.55
2022-10-17T20:44:35.281Z,13.60
2022-10-17T20:47:02.830Z,13.45
2022-10-17T20:49:30.142Z,13.59
2022-10-17T20:51:56.675Z,13.42
2022-10-17T20:54:23.154Z,13.52
2022-10-17T20:56:49.630Z,13.50
2022-10-17T20:59:16.896Z,13.57
2022-10-17T21:01:44.889Z,13.43
2022-10-17T21:04:40.292Z,13.49
2022-10-17T21:06:58.294Z,13.43
2022-10-17T21:09:25.190Z,13.40
2022-10-17T21:11:55.624Z,13.41
2022-10-17T21:14:23.034Z,13.40
2022-10-17T21:16:49.797Z,13.39
2022-10-17T21:19:16.254Z,13.35
2022-10-17T21:21:43.865Z,13.32
2022-10-17T21:24:14.332Z,13.20
2022-10-17T21:26:41.866Z,13.29
2022-10-17T21:29:09.369Z,13.34
2022-10-17T21:31:36.956Z,13.23
2022-10-17T21:34:10.627Z,13.19
2022-10-17T21:36:38.010Z,13.30
2022-10-17T21:39:04.620Z,12.98
2022-10-17T21:41:31.466Z,13.00
2022-10-17T21:43:59.779Z,13.08
2022-10-17T21:46:26.486Z,13.09
2022-10-17T21:48:53.098Z,13.01
2022-10-17T21:51:23.985Z,12.98
2022-10-17T21:53:51.548Z,12.99
2022-10-17T21:56:19.549Z,13.00
2022-10-17T21:58:46.420Z,13.03
2022-10-17T22:01:17.558Z,12.91
2022-10-17T22:03:46.779Z,12.89
2022-10-17T22:06:38.848Z,12.85
2022-10-17T22:09:05.704Z,12.80
2022-10-17T22:11:33.025Z,12.73
2022-10-17T22:14:00.956Z,12.81
2022-10-17T22:16:27.527Z,12.71
2022-10-17T22:19:00.391Z,12.66
2022-10-17T22:21:28.319Z,12.60
2022-10-17T22:23:59.257Z,12.60
2022-10-17T22:26:26.377Z,12.72
2022-10-17T22:28:53.220Z,12.60
2022-10-17T22:31:20.122Z,12.73
2022-10-17T22:33:46.959Z,12.70
2022-10-17T22:36:13.701Z,12.62
2022-10-17T22:38:40.125Z,12.57
2022-10-17T22:41:06.755Z,12.49
2022-10-17T22:43:33.263Z,12.42
2022-10-17T22:46:00.547Z,12.41
2022-10-17T22:48:27.642Z,12.30
2022-10-17T22:50:54.935Z,12.24
2022-10-17T22:53:26.667Z,12.11
2022-10-17T22:55:54.058Z,12.09
2022-10-17T22:58:20.706Z,12.30
2022-10-17T23:00:47.949Z,12.34
2022-10-17T23:03:14.818Z,12.25
2022-10-17T23:05:41.305Z,12.21
2022-10-17T23:08:07.756Z,12.30
2022-10-17T23:10:34.704Z,12.26
2022-10-17T23:13:01.195Z,12.28
2022-10-17T23:15:27.658Z,12.18
2022-10-17T23:17:54.221Z,12.00
2022-10-17T23:20:20.659Z,12.24
2022-10-17T23:22:47.072Z,12.06
2022-10-17T23:25:13.480Z,12.20
2022-10-17T23:27:39.916Z,12.18
2022-10-17T23:30:06.650Z,12.26
2022-10-17T23:32:33.355Z,12.13
2022-10-17T23:34:59.904Z,12.20
2022-10-17T23:37:26.395Z,12.21
2022-10-17T23:39:52.864Z,12.17
2022-10-17T23:42:19.326Z,12.04
2022-10-17T23:44:45.998Z,11.59
2022-10-17T23:47:12.458Z,11.58
2022-10-17T23:49:39.435Z,11.78
2022-10-17T23:52:06.039Z,11.92
2022-10-17T23:54:34.142Z,11.83
2022-10-17T23:57:01.077Z,12.09
2022-10-17T23:59:27.513Z,11.93
